Natick, MA

4:32 AM EDT on March 27, 2015 (GMT -0400)
KMANATIC6 | | Change Station
CLOSE
Current Station
Personal Weather Station
Location: Natick, MA
Elevation: 243 ft
Nearby Weather Stations

Elev 243 ft 42.29 °N, 71.35 °W | Updated 3 minutes ago

Overcast
Overcast
38.8 °F
Feels Like 39 °F
N
0.0
Wind Variable Wind from NW
Gusts 2.0 mph

Today
High -- | Low -- °F
--% Chance of Precip.
Yesterday
High -- | Low -- °F
Precip. -- in
6:37 AM 7:05 PM
Waxing Crescent, 50% visible
Pressure 29.65 in
Visibility 10.0 miles
Clouds Mostly Cloudy 900 ft
Overcast 1300 ft
Windchill 39 °F
Dew Point 38 °F
Humidity 98%
Rainfall 0.02 in
Snow Depth Not available.
UV 0 out of 12
Pollen 3.50 out of 12
Air Quality Not available.
Flu Activity Not available.
METAR KOWD 270753Z AUTO 01003KT 10SM -RA BKN009 OVC013 06/04 A2965 RMK AO2 CIG 006V010 SLP040 P0001 T00560044

More Conditions Fewer Conditions

Pressure 29.65 in
Visibility 10.0 miles
Clouds Mostly Cloudy 900 ft
Overcast 1300 ft
Windchill 39 °F
Dew Point 38 °F
Humidity 98%
Rainfall 0.02 in
Snow Depth Not available.
UV 0 out of 12
Pollen 3.50 out of 12
Air Quality Not available.
Flu Activity Not available.
METAR KOWD 270753Z AUTO 01003KT 10SM -RA BKN009 OVC013 06/04 A2965 RMK AO2 CIG 006V010 SLP040 P0001 T00560044

More Conditions Fewer Conditions

10-Day Weather Forecast

Almanac

Astronomy

Mar. 27, 2015 Rise Set
Actual Time
Civil Twilight
Nautical Twilight
Astronomical Twilight
Moon
Length of Visible Light
Length of Day
Tomorrow will be .
, % of the Moon is Illuminated

Today's Extremes

State Highs State Lows

Community

WunderPhotos

Upload Photos

1,808,705 photos uploaded!

WunderBlogs® & News

Nearby

Air Quality

  Air Quality AQ Index Pollutant
Not available.

Snow Depth

Station Depth Elevation

Earthquake Activity

City Distance Mag. Time & Date
Minimum magnitude displayed is 2.5.

Coastal Water Temperatures

Place Temperature

Stations

Nearby Weather Stations

Station Location Temp. Windchill Dew Point Humidity Wind Precip. Elev Updated Type